Elrama, Pennsylvania
Current Conditions -  °F | °C
As of 1:53 PM on Friday 31 Oct 2014 (Local Time) from KAGC Reporting Station
Light Rain Light Rain  
Wind Chill:   Ceiling: 4300
Heat Index:   Visibility: 4mi
Dew Point:   Wind: 6mph
Humidity: 71%   Direction: 310°NW
Pressure: 29.87"   Gusts: NA
Location:  40.25°N, 79.92°W
Report Text: KAGC 311753Z 31005KT 4SM -RA SCT034 OVC043 07/02 A2987 RMK AO2 RAE1657B14 SLP125 P0000 60000 T00670017 10083 20061 58018
Loading
Personal Weather Stations






























Interactive Weather Map
Tropical Storm Tracking
New forecast layout! Learn more

10-Day Weather Forecast

Advertisements
Track Severe Weather on mobile